Commodore Clipper — C6QQ3 — position and weather

sailwx.info

Track history (hours):
 
Tides and Currents Weather Stations Pressure Air Temp Water Temp Dewpoint Dewpoint Depression Visibility Wind Speed Wind Dir Waves Ship Positions

Commodore Clipper

Operator: Condor Marine Services

Last reported at 2020-Aug-09 20:00 UTC. Time now 2020-Aug-09 22:47 UTC.
Position N 50°49' W 001°06'.

Length 130 m; draft 5.3 m.

Type: Ship (hazmat cat C). MMSI: 308094000.

Date/timePositionNaut miles runAvg speedWind from/ knotsBaromVisibWave heightAir tempDewpointWater temp
2020-Aug-09 20:00N 50°49' W 001°06'0 0.0
2020-Aug-09 18:30N 50°49' W 001°06'0 0.0
2020-Aug-09 16:30N 50°49' W 001°06'0 0.0
2020-Aug-09 15:00N 50°49' W 001°06'0 0.0
2020-Aug-09 12:30N 50°49' W 001°06'0 0.0
2020-Aug-09 11:00N 50°49' W 001°06'0 0.0
2020-Aug-09 09:30N 50°49' W 001°06'0 0.0
2020-Aug-09 07:30N 50°49' W 001°06'0 0.0
2020-Aug-09 07:00N 50°49' W 001°06'0 0.0
2020-Aug-09 05:30N 50°49' W 001°06'6 5.7
2020-Aug-09 04:30N 50°43' W 001°03'6212.4
2020-Aug-08 23:31N 49°51' W 001°56'1515.4
2020-Aug-08 22:30N 49°38' W 002°07'1413.9
2020-Aug-08 21:30N 49°25' W 002°15'15 3.7
2020-Aug-08 17:31N 49°10' W 002°16'19 6.3
2020-Aug-08 14:30N 49°28' W 002°22'2617.4
2020-Aug-08 13:00N 49°49' W 001°58'2415.6
2020-Aug-08 11:30N 50°09' W 001°38'915.0
2020-Aug-08 10:55N 50°16' W 001°30'2115.0
2020-Aug-08 09:30N 50°33' W 001°09'815.4
2020-Aug-08 09:01N 50°39' W 001°02'1010.1
2020-Aug-08 08:00N 50°49' W 001°06'1 0.2
2020-Aug-08 05:00N 50°49' W 001°07'1111.2
2020-Aug-08 04:00N 50°37' W 001°07'713.9
2020-Aug-08 03:31N 50°32' W 001°13'714.6
2020-Aug-08 03:01N 50°26' W 001°21'2311.5
2020-Aug-08 01:00N 50°06' W 001°38'1312.8
2020-Aug-08 00:01N 49°55' W 001°48'3216.2
2020-Aug-07 22:00N 49°27' W 002°14'17 6.8
2020-Aug-07 19:30N 49°11' W 002°07'8 4.1
2020-Aug-07 17:31N 49°12' W 002°19'1717.1
2020-Aug-07 16:30N 49°27' W 002°32'17 6.7
2020-Aug-07 14:00N 49°36' W 002°09'1918.7
2020-Aug-07 13:00N 49°52' W 001°55'816.8
2020-Aug-07 12:30N 49°59' W 001°47'3215.8
2020-Aug-07 10:30N 50°25' W 001°20'714.6
2020-Aug-07 10:01N 50°31' W 001°12'19 5.3
2020-Aug-07 06:30N 50°49' W 001°06'1 0.5
2020-Aug-07 05:00N 50°48' W 001°07'510.8
2020-Aug-07 04:31N 50°43' W 001°04'612.9
2020-Aug-07 04:00N 50°37' W 001°07'713.9
2020-Aug-07 03:30N 50°32' W 001°13'3112.3
2020-Aug-07 01:01N 50°06' W 001°40'2013.2
2020-Aug-06 23:31N 49°49' W 001°56'3316.7
2020-Aug-06 21:31N 49°20' W 002°20'12 8.2
2020-Aug-06 20:00N 49°11' W 002°07'23 5.8
2020-Aug-06 16:00N 49°27' W 002°32'24 9.5
2020-Aug-06 13:31N 49°43' W 002°04'7610.1
2020-Aug-06 06:00N 50°49' W 001°06'0 0.0
2020-Aug-06 05:30N 50°49' W 001°06'5 5.4
2020-Aug-06 04:30N 50°44' W 001°03'612.4
2020-Aug-06 04:00N 50°37' W 001°04'2311.6
2020-Aug-06 02:00N 50°19' W 001°25'610.3
2020-Aug-06 01:27N 50°14' W 001°30'4615.6
2020-Aug-05 22:31N 49°35' W 002°09'25 9.9
2020-Aug-05 20:00N 49°11' W 002°07'0 0.0
2020-Aug-05 19:30N 49°11' W 002°07'10 5.2
2020-Aug-05 17:31N 49°15' W 002°21'20 5.8
2020-Aug-05 14:01N 49°34' W 002°11'2020.1
2020-Aug-05 13:01N 49°52' W 001°57'917.8
2020-Aug-05 12:31N 49°60' W 001°50'4715.6
2020-Aug-05 09:30N 50°38' W 001°07'11 3.7
2020-Aug-05 06:30N 50°49' W 001°06'5 2.7
2020-Aug-05 04:30N 50°44' W 001°03'5012.5
2020-Aug-05 00:31N 50°01' W 001°43'2713.2
2020-Aug-04 22:30N 49°39' W 002°06'2415.8
2020-Aug-04 21:01N 49°17' W 002°20'1110.7
2020-Aug-04 20:00N 49°11' W 002°07'13 4.2
2020-Aug-04 17:01N 49°17' W 002°23'7111.7
2020-Aug-04 10:55N 50°19' W 001°28'2215.7
2020-Aug-04 09:30N 50°37' W 001°07'714.5
2020-Aug-04 09:01N 50°44' W 001°03'510.9
2020-Aug-04 08:30N 50°49' W 001°06'0 0.1
2020-Aug-04 05:00N 50°49' W 001°07'1111.4
2020-Aug-04 04:00N 50°37' W 001°03'1313.0
2020-Aug-04 03:00N 50°26' W 001°13'5813.0
2020-Aug-03 22:30N 49°39' W 002°07'29 5.9
2020-Aug-03 17:31N 49°10' W 002°15'1716.9
2020-Aug-03 16:31N 49°25' W 002°28'4 3.6
2020-Aug-03 15:30N 49°27' W 002°32'22 8.8
2020-Aug-03 13:00N 49°41' W 002°05'3918.4
2020-Aug-03 10:55N 50°15' W 001°35'1516.7
2020-Aug-03 10:00N 50°26' W 001°19'816.0
2020-Aug-03 09:28N 50°33' W 001°11'715.6
2020-Aug-03 09:00N 50°39' W 001°05'10 4.9
2020-Aug-03 07:00N 50°49' W 001°06'0 0.0
2020-Aug-03 05:31N 50°49' W 001°06'0 0.0
2020-Aug-03 04:30N 50°49' W 001°06'0 0.0
2020-Aug-03 03:30N 50°49' W 001°06'0 0.0
2020-Aug-03 00:01N 50°49' W 001°06'0 0.0
2020-Aug-02 17:31N 50°49' W 001°06'0 0.0
2020-Aug-02 16:31N 50°49' W 001°06'0 0.0
2020-Aug-02 13:30N 50°49' W 001°06'0 0.0
2020-Aug-02 13:01N 50°49' W 001°06'0 0.0
2020-Aug-02 12:31N 50°49' W 001°06'0 0.0
2020-Aug-02 10:30N 50°49' W 001°06'0 0.0
2020-Aug-02 10:01N 50°49' W 001°06'0 0.0
2020-Aug-02 06:30N 50°49' W 001°06'1 0.4
2020-Aug-02 05:00N 50°49' W 001°07'510.2
2020-Aug-02 04:30N 50°44' W 001°03'713.5
2020-Aug-02 04:00N 50°37' W 001°04'4213.7
2020-Aug-02 00:58N 50°03' W 001°42'3413.8
2020-Aug-01 22:31N 49°34' W 002°10'24 3.7
2020-Aug-01 16:00N 49°11' W 002°07'19 9.3
2020-Aug-01 14:00N 49°29' W 002°12'4216.6
2020-Aug-01 11:31N 50°07' W 001°48'3517.3
2020-Aug-01 09:29N 50°33' W 001°11'16 4.0
2020-Aug-01 05:31N 50°49' W 001°06'3511.2
2020-Aug-01 02:25N 50°17' W 001°27'2915.1
2020-Aug-01 00:31N 49°54' W 001°53'714.8
2020-Aug-01 00:01N 49°47' W 001°59'2911.6
2020-Jul-31 21:30N 49°27' W 002°32'23 6.6
2020-Jul-31 17:59N 49°11' W 002°07'5 1.8
2020-Jul-31 15:31N 49°10' W 002°14'5415.5
2020-Jul-31 12:01N 50°02' W 001°47'3718.3
2020-Jul-31 10:01N 50°31' W 001°14'18 5.2
2020-Jul-31 06:31N 50°49' W 001°06'0 0.0
2020-Jul-31 06:01N 50°49' W 001°06'1 1.2
2020-Jul-31 05:01N 50°48' W 001°07'1111.0
2020-Jul-31 04:00N 50°37' W 001°07'4715.6
2020-Jul-31 01:01N 49°58' W 001°48'816.3
2020-Jul-31 00:31N 49°51' W 001°56'3015.1
2020-Jul-30 22:30N 49°27' W 002°24'5 5.0
2020-Jul-30 21:30N 49°27' W 002°32'0 0.0
2020-Jul-30 20:30N 49°27' W 002°32'  
Track history (hours):
 
Tides and Currents Weather Stations Pressure Air Temp Water Temp Dewpoint Dewpoint Depression Visibility Wind Speed Wind Dir Waves Ship Positions

Commodore Clipper

Operator: Condor Marine Services

Last reported at 2020-Aug-09 20:00 UTC. Time now 2020-Aug-09 22:47 UTC.
Position N 50°49' W 001°06'.

Length 130 m; draft 5.3 m.

Type: Ship (hazmat cat C). MMSI: 308094000.

Date/timePositionNaut miles runAvg speedWind from/ knotsBaromVisibWave heightAir tempDewpointWater temp
2020-Aug-09 20:00N 50°49' W 001°06'0 0.0
2020-Aug-09 18:30N 50°49' W 001°06'0 0.0
2020-Aug-09 16:30N 50°49' W 001°06'0 0.0
2020-Aug-09 15:00N 50°49' W 001°06'0 0.0
2020-Aug-09 12:30N 50°49' W 001°06'0 0.0
2020-Aug-09 11:00N 50°49' W 001°06'0 0.0
2020-Aug-09 09:30N 50°49' W 001°06'0 0.0
2020-Aug-09 07:30N 50°49' W 001°06'0 0.0
2020-Aug-09 07:00N 50°49' W 001°06'0 0.0
2020-Aug-09 05:30N 50°49' W 001°06'6 5.7
2020-Aug-09 04:30N 50°43' W 001°03'6212.4
2020-Aug-08 23:31N 49°51' W 001°56'1515.4
2020-Aug-08 22:30N 49°38' W 002°07'1413.9
2020-Aug-08 21:30N 49°25' W 002°15'15 3.7
2020-Aug-08 17:31N 49°10' W 002°16'19 6.3
2020-Aug-08 14:30N 49°28' W 002°22'2617.4
2020-Aug-08 13:00N 49°49' W 001°58'2415.6
2020-Aug-08 11:30N 50°09' W 001°38'915.0
2020-Aug-08 10:55N 50°16' W 001°30'2115.0
2020-Aug-08 09:30N 50°33' W 001°09'815.4
2020-Aug-08 09:01N 50°39' W 001°02'1010.1
2020-Aug-08 08:00N 50°49' W 001°06'1 0.2
2020-Aug-08 05:00N 50°49' W 001°07'1111.2
2020-Aug-08 04:00N 50°37' W 001°07'713.9
2020-Aug-08 03:31N 50°32' W 001°13'714.6
2020-Aug-08 03:01N 50°26' W 001°21'2311.5
2020-Aug-08 01:00N 50°06' W 001°38'1312.8
2020-Aug-08 00:01N 49°55' W 001°48'3216.2
2020-Aug-07 22:00N 49°27' W 002°14'17 6.8
2020-Aug-07 19:30N 49°11' W 002°07'8 4.1
2020-Aug-07 17:31N 49°12' W 002°19'1717.1
2020-Aug-07 16:30N 49°27' W 002°32'17 6.7
2020-Aug-07 14:00N 49°36' W 002°09'1918.7
2020-Aug-07 13:00N 49°52' W 001°55'816.8
2020-Aug-07 12:30N 49°59' W 001°47'3215.8
2020-Aug-07 10:30N 50°25' W 001°20'714.6
2020-Aug-07 10:01N 50°31' W 001°12'19 5.3
2020-Aug-07 06:30N 50°49' W 001°06'1 0.5
2020-Aug-07 05:00N 50°48' W 001°07'510.8
2020-Aug-07 04:31N 50°43' W 001°04'612.9
2020-Aug-07 04:00N 50°37' W 001°07'713.9
2020-Aug-07 03:30N 50°32' W 001°13'3112.3
2020-Aug-07 01:01N 50°06' W 001°40'2013.2
2020-Aug-06 23:31N 49°49' W 001°56'3316.7
2020-Aug-06 21:31N 49°20' W 002°20'12 8.2
2020-Aug-06 20:00N 49°11' W 002°07'23 5.8
2020-Aug-06 16:00N 49°27' W 002°32'24 9.5
2020-Aug-06 13:31N 49°43' W 002°04'7610.1
2020-Aug-06 06:00N 50°49' W 001°06'0 0.0
2020-Aug-06 05:30N 50°49' W 001°06'5 5.4
2020-Aug-06 04:30N 50°44' W 001°03'612.4
2020-Aug-06 04:00N 50°37' W 001°04'2311.6
2020-Aug-06 02:00N 50°19' W 001°25'610.3
2020-Aug-06 01:27N 50°14' W 001°30'4615.6
2020-Aug-05 22:31N 49°35' W 002°09'25 9.9
2020-Aug-05 20:00N 49°11' W 002°07'0 0.0
2020-Aug-05 19:30N 49°11' W 002°07'10 5.2
2020-Aug-05 17:31N 49°15' W 002°21'20 5.8
2020-Aug-05 14:01N 49°34' W 002°11'2020.1
2020-Aug-05 13:01N 49°52' W 001°57'917.8
2020-Aug-05 12:31N 49°60' W 001°50'4715.6
2020-Aug-05 09:30N 50°38' W 001°07'11 3.7
2020-Aug-05 06:30N 50°49' W 001°06'5 2.7
2020-Aug-05 04:30N 50°44' W 001°03'5012.5
2020-Aug-05 00:31N 50°01' W 001°43'2713.2
2020-Aug-04 22:30N 49°39' W 002°06'2415.8
2020-Aug-04 21:01N 49°17' W 002°20'1110.7
2020-Aug-04 20:00N 49°11' W 002°07'13 4.2
2020-Aug-04 17:01N 49°17' W 002°23'7111.7
2020-Aug-04 10:55N 50°19' W 001°28'2215.7
2020-Aug-04 09:30N 50°37' W 001°07'714.5
2020-Aug-04 09:01N 50°44' W 001°03'510.9
2020-Aug-04 08:30N 50°49' W 001°06'0 0.1
2020-Aug-04 05:00N 50°49' W 001°07'1111.4
2020-Aug-04 04:00N 50°37' W 001°03'1313.0
2020-Aug-04 03:00N 50°26' W 001°13'5813.0
2020-Aug-03 22:30N 49°39' W 002°07'29 5.9
2020-Aug-03 17:31N 49°10' W 002°15'1716.9
2020-Aug-03 16:31N 49°25' W 002°28'4 3.6
2020-Aug-03 15:30N 49°27' W 002°32'22 8.8
2020-Aug-03 13:00N 49°41' W 002°05'3918.4
2020-Aug-03 10:55N 50°15' W 001°35'1516.7
2020-Aug-03 10:00N 50°26' W 001°19'816.0
2020-Aug-03 09:28N 50°33' W 001°11'715.6
2020-Aug-03 09:00N 50°39' W 001°05'10 4.9
2020-Aug-03 07:00N 50°49' W 001°06'0 0.0
2020-Aug-03 05:31N 50°49' W 001°06'0 0.0
2020-Aug-03 04:30N 50°49' W 001°06'0 0.0
2020-Aug-03 03:30N 50°49' W 001°06'0 0.0
2020-Aug-03 00:01N 50°49' W 001°06'0 0.0
2020-Aug-02 17:31N 50°49' W 001°06'0 0.0
2020-Aug-02 16:31N 50°49' W 001°06'0 0.0
2020-Aug-02 13:30N 50°49' W 001°06'0 0.0
2020-Aug-02 13:01N 50°49' W 001°06'0 0.0
2020-Aug-02 12:31N 50°49' W 001°06'0 0.0
2020-Aug-02 10:30N 50°49' W 001°06'0 0.0
2020-Aug-02 10:01N 50°49' W 001°06'0 0.0
2020-Aug-02 06:30N 50°49' W 001°06'1 0.4
2020-Aug-02 05:00N 50°49' W 001°07'510.2
2020-Aug-02 04:30N 50°44' W 001°03'713.5
2020-Aug-02 04:00N 50°37' W 001°04'4213.7
2020-Aug-02 00:58N 50°03' W 001°42'3413.8
2020-Aug-01 22:31N 49°34' W 002°10'24 3.7
2020-Aug-01 16:00N 49°11' W 002°07'19 9.3
2020-Aug-01 14:00N 49°29' W 002°12'4216.6
2020-Aug-01 11:31N 50°07' W 001°48'3517.3
2020-Aug-01 09:29N 50°33' W 001°11'16 4.0
2020-Aug-01 05:31N 50°49' W 001°06'3511.2
2020-Aug-01 02:25N 50°17' W 001°27'2915.1
2020-Aug-01 00:31N 49°54' W 001°53'714.8
2020-Aug-01 00:01N 49°47' W 001°59'2911.6
2020-Jul-31 21:30N 49°27' W 002°32'23 6.6
2020-Jul-31 17:59N 49°11' W 002°07'5 1.8
2020-Jul-31 15:31N 49°10' W 002°14'5415.5
2020-Jul-31 12:01N 50°02' W 001°47'3718.3
2020-Jul-31 10:01N 50°31' W 001°14'18 5.2
2020-Jul-31 06:31N 50°49' W 001°06'0 0.0
2020-Jul-31 06:01N 50°49' W 001°06'1 1.2
2020-Jul-31 05:01N 50°48' W 001°07'1111.0
2020-Jul-31 04:00N 50°37' W 001°07'4715.6
2020-Jul-31 01:01N 49°58' W 001°48'816.3
2020-Jul-31 00:31N 49°51' W 001°56'3015.1
2020-Jul-30 22:30N 49°27' W 002°24'5 5.0
2020-Jul-30 21:30N 49°27' W 002°32'0 0.0
2020-Jul-30 20:30N 49°27' W 002°32'  

Dump ship's entire track history